Time;durP1;ratioP1;P1;durP2;ratioP2;P2;SDS_P1;SDS_P2;PMS_P1;PMS_P2;Temp;Humidity;BMP_temperature;BMP_pressure;BME280_temperature;BME280_humidity;BME280_pressure;Samples;Min_cycle;Max_cycle;Signal;HPM_P1;HPM_P2
2021/03/22 00:08:02;;;;;;;39.7;26.8;;;;;;;0.45;100;98081.72;;;;
2021/03/22 00:17:59;;;;;;;28.9;24.4;;;;;;;0.45;100;98099.5;;;;
2021/03/22 00:27:57;;;;;;;38.2;28.7;;;;;;;0.49;100;98106.67;;;;
2021/03/22 00:37:54;;;;;;;42.9;26.6;;;;;;;0.56;100;98110.95;;;;
2021/03/22 00:47:52;;;;;;;38.5;27.4;;;;;;;0.45;100;98104.8;;;;
2021/03/22 00:57:50;;;;;;;35.8;27.7;;;;;;;0.57;100;98118.66;;;;
2021/03/22 01:07:47;;;;;;;30.9;27.6;;;;;;;0.56;100;98116.25;;;;
2021/03/22 01:17:45;;;;;;;25.8;23;;;;;;;0.62;100;98115.25;;;;
2021/03/22 01:27:43;;;;;;;31.2;23.5;;;;;;;0.68;100;98125.64;;;;
2021/03/22 01:37:43;;;;;;;26.7;22.8;;;;;;;0.59;100;98129.03;;;;
2021/03/22 01:47:38;;;;;;;34.8;26.3;;;;;;;0.67;100;98136.48;;;;
2021/03/22 01:57:36;;;;;;;28.1;24.8;;;;;;;0.66;100;98143.64;;;;
2021/03/22 02:07:33;;;;;;;29.4;24.9;;;;;;;0.54;100;98148.34;;;;
2021/03/22 02:17:31;;;;;;;30.8;21.7;;;;;;;0.61;100;98142.81;;;;
2021/03/22 02:27:28;;;;;;;16.2;10.4;;;;;;;0.54;100;98150.19;;;;
2021/03/22 02:37:26;;;;;;;12.2;9.2;;;;;;;0.49;100;98161.53;;;;
2021/03/22 02:47:24;;;;;;;10.9;7.2;;;;;;;0.4;100;98171.02;;;;
2021/03/22 02:57:21;;;;;;;9.9;6.9;;;;;;;0.32;100;98177.56;;;;
2021/03/22 03:07:19;;;;;;;10.8;7;;;;;;;0.14;100;98190.39;;;;
2021/03/22 03:17:16;;;;;;;7.9;6;;;;;;;0.07;100;98203.81;;;;
2021/03/22 03:27:14;;;;;;;12.3;6.2;;;;;;;-0.03;100;98214.3;;;;
2021/03/22 03:37:11;;;;;;;8.4;5.8;;;;;;;-0.19;100;98229.23;;;;
2021/03/22 03:47:09;;;;;;;7.7;3.3;;;;;;;-0.33;99.04785;98240.42;;;;
2021/03/22 03:57:07;;;;;;;6.4;4.6;;;;;;;-0.42;99.01855;98241.91;;;;
2021/03/22 04:07:04;;;;;;;8.8;4.3;;;;;;;-0.5;98.83594;98261.66;;;;
2021/03/22 04:17:02;;;;;;;7.3;4;;;;;;;-0.59;97.94141;98271.06;;;;
2021/03/22 04:26:59;;;;;;;7.3;4.3;;;;;;;-0.65;96.99902;98282.59;;;;
2021/03/22 04:36:57;;;;;;;6.2;4;;;;;;;-0.73;96.52148;98299.68;;;;
2021/03/22 04:46:54;;;;;;;9.5;4.4;;;;;;;-0.73;96.44531;98312.13;;;;
2021/03/22 04:56:52;;;;;;;6.6;3.7;;;;;;;-0.73;96.75098;98317.42;;;;
2021/03/22 05:06:49;;;;;;;7.4;4.9;;;;;;;-0.81;96.82031;98329.2;;;;
2021/03/22 05:16:47;;;;;;;14.1;8.6;;;;;;;-0.73;97.10059;98335.95;;;;
2021/03/22 05:26:46;;;;;;;7.5;3.4;;;;;;;-0.73;97.89746;98355.23;;;;
2021/03/22 05:36:42;;;;;;;9.8;5.8;;;;;;;-0.6;98.3418;98362.08;;;;
2021/03/22 05:46:39;;;;;;;9.6;6.3;;;;;;;-0.56;97.80566;98365.85;;;;
2021/03/22 05:56:37;;;;;;;7.6;5.3;;;;;;;-0.44;97.46289;98382.44;;;;
2021/03/22 06:06:34;;;;;;;10.6;6.4;;;;;;;-0.39;98.01953;98401.06;;;;
2021/03/22 06:16:32;;;;;;;14.8;8.2;;;;;;;-0.23;97.29102;98404.72;;;;
2021/03/22 06:26:29;;;;;;;10.9;8.5;;;;;;;-0.08;96.43945;98413.71;;;;
2021/03/22 06:36:27;;;;;;;7.8;4.6;;;;;;;-0.13;94.21875;98410.97;;;;
2021/03/22 06:46:24;;;;;;;15.6;7.3;;;;;;;-0.13;93.52734;98426.06;;;;
2021/03/22 06:56:22;;;;;;;8.1;5.7;;;;;;;0.16;93.56738;98432.05;;;;
2021/03/22 07:06:19;;;;;;;8.3;4.7;;;;;;;0.39;91.55859;98448.53;;;;
2021/03/22 07:16:17;;;;;;;9.2;5.1;;;;;;;0.7;87.29688;98448.91;;;;
2021/03/22 07:26:14;;;;;;;6.9;3.9;;;;;;;0.8;86.2627;98473.7;;;;
2021/03/22 07:36:12;;;;;;;9.1;4.2;;;;;;;0.84;85.94043;98484.63;;;;
2021/03/22 07:46:10;;;;;;;7.2;4.5;;;;;;;1.22;81.45508;98478.42;;;;
2021/03/22 07:56:08;;;;;;;11.6;4.5;;;;;;;1.39;80.71484;98487.09;;;;
2021/03/22 08:06:08;;;;;;;6.8;4.7;;;;;;;1.51;77.96973;98491.22;;;;
2021/03/22 08:16:03;;;;;;;13.1;3.2;;;;;;;1.94;72.95703;98495.55;;;;
2021/03/22 08:26:01;;;;;;;5.5;2.4;;;;;;;2.27;71.14063;98499.8;;;;
2021/03/22 08:35:59;;;;;;;6.4;3.7;;;;;;;2.23;69.44824;98501.36;;;;
2021/03/22 08:45:58;;;;;;;7.1;2.9;;;;;;;2.71;66.34961;98495;;;;
2021/03/22 08:55:57;;;;;;;4.5;2.2;;;;;;;3;65.29297;98498.06;;;;
2021/03/22 09:06:05;;;;;;;4.6;2.5;;;;;;;3.02;63.43848;98504.72;;;;
2021/03/22 09:16:13;;;;;;;19.2;3.4;;;;;;;3.24;62.50195;98519.7;;;;
2021/03/22 09:25:59;;;;;;;5.1;2.7;;;;;;;2.91;60.66211;98521.73;;;;
2021/03/22 09:36:17;;;;;;;3.4;1.4;;;;;;;3.3;60.51758;98516.8;;;;
2021/03/22 09:46:05;;;;;;;3.7;1.4;;;;;;;3.2;60.17871;98516.77;;;;
2021/03/22 09:55:42;;;;;;;4.2;1.5;;;;;;;2.8;57.42676;98524.59;;;;
2021/03/22 10:05:40;;;;;;;5.8;2.3;;;;;;;3.37;56.94531;98511.22;;;;
2021/03/22 10:15:38;;;;;;;3.4;1.3;;;;;;;3.98;54.23145;98515.59;;;;
2021/03/22 10:25:36;;;;;;;4.1;1.4;;;;;;;3.8;53.60449;98512.64;;;;
2021/03/22 10:35:34;;;;;;;3.6;1.5;;;;;;;4.52;52.1582;98509.67;;;;
2021/03/22 10:45:33;;;;;;;1.7;0.6;;;;;;;5.12;48.90918;98489.2;;;;
2021/03/22 10:55:31;;;;;;;4;1;;;;;;;5.19;48.67969;98495.04;;;;
2021/03/22 11:05:29;;;;;;;9.1;3.1;;;;;;;4.22;48.68359;98515.86;;;;
2021/03/22 11:15:27;;;;;;;2.8;0.9;;;;;;;3.48;51.84277;98520.84;;;;
2021/03/22 11:25:25;;;;;;;118;96.7;;;;;;;3.3;57.08203;98530.11;;;;
2021/03/22 11:35:23;;;;;;;6.9;2.9;;;;;;;4.01;59.56738;98515.06;;;;
2021/03/22 11:45:21;;;;;;;11.1;8.3;;;;;;;3.9;59.75293;98529.45;;;;
2021/03/22 11:55:19;;;;;;;4.3;1.8;;;;;;;3.86;57.60254;98531.04;;;;
2021/03/22 12:05:17;;;;;;;3.8;1.2;;;;;;;4.2;57.06641;98517.98;;;;
2021/03/22 12:15:15;;;;;;;13.6;7.6;;;;;;;3.68;62.20898;98517.44;;;;
2021/03/22 12:25:14;;;;;;;36.5;25;;;;;;;4.62;61.37305;98517.66;;;;
2021/03/22 12:35:12;;;;;;;21.8;19.7;;;;;;;4.37;58.7334;98512.38;;;;
2021/03/22 12:45:10;;;;;;;3.2;1.8;;;;;;;4.35;59.47949;98515.3;;;;
2021/03/22 12:55:08;;;;;;;5.9;2.4;;;;;;;5.45;55.78613;98512.53;;;;
2021/03/22 13:05:06;;;;;;;2.7;0.8;;;;;;;5.59;53.05371;98492.13;;;;
2021/03/22 13:15:05;;;;;;;4.6;1.9;;;;;;;5.48;48.00586;98502.09;;;;
2021/03/22 13:25:03;;;;;;;2.9;1.4;;;;;;;5.13;49.3252;98510.3;;;;
2021/03/22 13:35:01;;;;;;;4.1;1.7;;;;;;;5;50.9834;98525.02;;;;
2021/03/22 13:44:59;;;;;;;4;1.2;;;;;;;5.11;48.95313;98525.79;;;;
2021/03/22 13:54:57;;;;;;;4.1;1.8;;;;;;;4.91;49.5127;98512.52;;;;
2021/03/22 14:04:56;;;;;;;8.8;4.7;;;;;;;5.41;49.69434;98519.52;;;;
2021/03/22 14:14:54;;;;;;;5.6;3.4;;;;;;;5.27;48.51074;98513.98;;;;
2021/03/22 14:24:52;;;;;;;11;7;;;;;;;5.56;47.94629;98514.08;;;;
2021/03/22 14:34:50;;;;;;;6.4;3.4;;;;;;;5.52;48.29102;98513.83;;;;
2021/03/22 14:44:48;;;;;;;10.9;4.3;;;;;;;5.59;48.73828;98508.98;;;;
2021/03/22 14:54:47;;;;;;;6.4;3.2;;;;;;;5.53;48.84375;98526.13;;;;
2021/03/22 15:04:47;;;;;;;6;2.4;;;;;;;4.58;49.94727;98535.3;;;;
2021/03/22 15:14:43;;;;;;;4.2;2.5;;;;;;;4.2;51.49316;98541.2;;;;
2021/03/22 15:24:41;;;;;;;4.6;2;;;;;;;3.95;54.68555;98557.98;;;;
2021/03/22 15:34:39;;;;;;;5.6;3.5;;;;;;;3.99;55.75391;98565.17;;;;
2021/03/22 15:44:37;;;;;;;9.1;7.2;;;;;;;4.84;55.03516;98566.2;;;;
2021/03/22 15:54:35;;;;;;;8.6;3.2;;;;;;;6.74;51.43848;98577.95;;;;
2021/03/22 16:04:33;;;;;;;9.2;6;;;;;;;6.3;55.44629;98577.27;;;;
2021/03/22 16:14:31;;;;;;;8.8;5.1;;;;;;;6.94;53.8623;98583.09;;;;
2021/03/22 16:24:29;;;;;;;7.5;4.9;;;;;;;4.94;55.78711;98600.89;;;;
2021/03/22 16:34:31;;;;;;;11.5;6.5;;;;;;;4.06;59.2168;98613.72;;;;
2021/03/22 16:44:25;;;;;;;8.9;6.1;;;;;;;3.48;60.74316;98633.55;;;;
2021/03/22 16:54:23;;;;;;;10.1;7.2;;;;;;;3.04;62.7627;98645.57;;;;
2021/03/22 17:04:21;;;;;;;11.1;7;;;;;;;2.58;66.91895;98665.72;;;;
2021/03/22 17:14:19;;;;;;;14.9;7.6;;;;;;;2.15;69.29297;98682.63;;;;
2021/03/22 17:24:17;;;;;;;14.2;7.1;;;;;;;1.79;71.79199;98699.22;;;;
2021/03/22 17:34:14;;;;;;;17.3;9.8;;;;;;;1.61;72.86621;98696.87;;;;
2021/03/22 17:44:12;;;;;;;13.2;9.6;;;;;;;1.31;74.24316;98715.87;;;;
2021/03/22 17:54:09;;;;;;;15.8;11.9;;;;;;;0.98;78.27832;98729.97;;;;
2021/03/22 18:04:07;;;;;;;21;15.2;;;;;;;0.69;80.45117;98731.91;;;;
2021/03/22 18:14:05;;;;;;;15.6;12.6;;;;;;;0.35;80.9707;98756.73;;;;
2021/03/22 18:24:02;;;;;;;32.6;18.3;;;;;;;-0.03;83.53711;98766.09;;;;
2021/03/22 18:33:59;;;;;;;22.3;16.9;;;;;;;-0.11;84.04883;98777.07;;;;
2021/03/22 18:43:57;;;;;;;26.9;20.2;;;;;;;-0.34;85.47266;98798.27;;;;
2021/03/22 18:53:54;;;;;;;25.9;17.3;;;;;;;-0.62;85.45996;98800.81;;;;
2021/03/22 19:03:52;;;;;;;29.8;26.6;;;;;;;-1.06;87.54102;98816.19;;;;
2021/03/22 19:13:49;;;;;;;38.6;25.4;;;;;;;-1.41;88.06934;98823.21;;;;
2021/03/22 19:23:47;;;;;;;47.7;25.8;;;;;;;-1.7;89.06934;98835.38;;;;
2021/03/22 19:33:43;;;;;;;35.6;25.2;;;;;;;-1.93;89.84863;98850.3;;;;
2021/03/22 19:43:41;;;;;;;35.5;23.2;;;;;;;-2.13;91.34766;98842.59;;;;
2021/03/22 19:53:38;;;;;;;33.2;26.5;;;;;;;-2.28;92.42383;98863.25;;;;
2021/03/22 20:03:35;;;;;;;30.9;23.1;;;;;;;-2.31;93.19141;98869.78;;;;
2021/03/22 20:13:34;;;;;;;33.9;27.5;;;;;;;-2.33;93.29688;98879.77;;;;
2021/03/22 20:23:30;;;;;;;50.3;27.6;;;;;;;-2.33;93.89648;98881.59;;;;
2021/03/22 20:33:27;;;;;;;45.4;29.4;;;;;;;-2.24;94.34082;98880.27;;;;
2021/03/22 20:43:24;;;;;;;49.6;28.6;;;;;;;-2.11;93.98926;98890.7;;;;
2021/03/22 20:53:21;;;;;;;35.7;28;;;;;;;-1.87;94.91406;98892.47;;;;
2021/03/22 21:03:18;;;;;;;36.3;24.7;;;;;;;-1.85;93.30469;98886.98;;;;
2021/03/22 21:13:16;;;;;;;42.8;30.1;;;;;;;-1.84;94.5498;98894.67;;;;
2021/03/22 21:23:13;;;;;;;38.5;27.9;;;;;;;-1.82;96.46094;98894.47;;;;
2021/03/22 21:33:10;;;;;;;46;34.1;;;;;;;-1.72;98.02148;98885;;;;
2021/03/22 21:43:07;;;;;;;42.4;31.7;;;;;;;-1.66;99.86523;98892.03;;;;
2021/03/22 21:53:04;;;;;;;37.8;28.1;;;;;;;-1.85;99.14453;98895.72;;;;
2021/03/22 22:03:02;;;;;;;37.8;27.3;;;;;;;-1.86;100;98906.49;;;;
2021/03/22 22:12:59;;;;;;;46.2;35.3;;;;;;;-1.91;100;98909.81;;;;
2021/03/22 22:22:56;;;;;;;60.3;37.8;;;;;;;-1.86;100;98907.3;;;;
2021/03/22 22:32:53;;;;;;;51.4;35.8;;;;;;;-1.71;100;98905.12;;;;
2021/03/22 22:42:51;;;;;;;48.1;37.3;;;;;;;-1.53;100;98923.58;;;;
2021/03/22 22:52:48;;;;;;;51.6;36;;;;;;;-1.42;100;98923.89;;;;
2021/03/22 23:02:48;;;;;;;48.1;37;;;;;;;-1.27;100;98930.39;;;;
2021/03/22 23:12:42;;;;;;;51.8;39.3;;;;;;;-1.08;100;98933.83;;;;
2021/03/22 23:22:40;;;;;;;53.6;37;;;;;;;-1;100;98930.84;;;;
2021/03/22 23:32:37;;;;;;;48.3;31.9;;;;;;;-0.81;100;98947.48;;;;
2021/03/22 23:42:35;;;;;;;35.5;30.9;;;;;;;-0.67;100;98948.91;;;;
2021/03/22 23:52:32;;;;;;;40.6;35.1;;;;;;;-0.64;100;98948.45;;;;
